^^
Meteo Knjazevac Station Historical Data
Daily Summary for June 4, 2021 Units:  English    Metric   Both
Daily Weekly Monthly Yearly Custom
  High: Low: Average:
Temperature: 42.3 °F 34.9 °F 37.7 °F
Dew Point: 37.5 °F 33.4 °F 35.3 °F
Humidity: 98% 81% 91%
Wind Speed: 7mph 0mph 1.7mph
Wind Gust: 13mph - -
Wind- - SSW
Pressure: 29.95 in 29.87 in -
Precipitation: 0.00 in    
Historical Graphs
 
 
Tabular Data for June 4, 2021
Time Temperature Dew Point Pressure Wind Wind Speed Wind Gust Humidity Rainfall Rate (Hourly) solar Conditions
00:00 36.5 °F 36 °F 29.95 in SSW 2 mph 5 mph 98% 0.00 in 0 W/m2
00:10 36.5 °F 35.5 °F 29.95 in South 2 mph 6 mph 96% 0.00 in 0 W/m2
00:20 36.5 °F 35.5 °F 29.94 in South 2 mph 5 mph 96% 0.00 in 0 W/m2
00:30 36.7 °F 35.6 °F 29.94 in South 1 mph 5 mph 96% 0.00 in 0 W/m2
00:40 36.7 °F 35.6 °F 29.94 in SW 3 mph 6 mph 96% 0.00 in 0 W/m2
00:50 36.5 °F 35.5 °F 29.94 in SSW 2 mph 5 mph 96% 0.00 in 0 W/m2
01:00 36.7 °F 35.6 °F 29.94 in SSE 2 mph 5 mph 96% 0.00 in 0 W/m2
01:10 36.7 °F 35.6 °F 29.94 in SE 3 mph 5 mph 96% 0.00 in 0 W/m2
01:20 36.7 °F 35.6 °F 29.94 in SSE 2 mph 6 mph 96% 0.00 in 0 W/m2
01:30 36.9 °F 35.8 °F 29.94 in South 2 mph 5 mph 96% 0.00 in 0 W/m2
01:40 36.9 °F 35.8 °F 29.94 in SSW 1 mph 5 mph 96% 0.00 in 0 W/m2
01:50 36.9 °F 35.8 °F 29.94 in SSW 2 mph 4 mph 96% 0.00 in 0 W/m2
02:00 36.9 °F 35.8 °F 29.94 in South 1 mph 5 mph 96% 0.00 in 0 W/m2
02:10 36.9 °F 35.8 °F 29.95 in South 2 mph 4 mph 96% 0.00 in 0 W/m2
02:20 36.9 °F 35.8 °F 29.95 in SSW 2 mph 3 mph 96% 0.00 in 0 W/m2
02:30 36.9 °F 35.8 °F 29.95 in SW 3 mph 5 mph 96% 0.00 in 0 W/m2
02:40 36.9 °F 35.8 °F 29.94 in SSW 2 mph 7 mph 96% 0.00 in 0 W/m2
02:50 36.7 °F 35.6 °F 29.94 in SW 1 mph 3 mph 96% 0.00 in 0 W/m2
03:00 36.7 °F 35.6 °F 29.94 in Calm   2 mph 96% 0.00 in 0 W/m2
03:10 36.7 °F 35.4 °F 29.94 in WSW 1 mph 5 mph 95% 0.00 in 0 W/m2
03:20 36.7 °F 35.4 °F 29.94 in SW 1 mph 6 mph 95% 0.00 in 0 W/m2
03:30 36.5 °F 35.2 °F 29.94 in SE 2 mph 5 mph 95% 0.00 in 0 W/m2
03:40 36.5 °F 35.2 °F 29.93 in SSE 2 mph 5 mph 95% 0.00 in 0 W/m2
03:50 36.5 °F 35.2 °F 29.93 in SSE 1 mph 5 mph 95% 0.00 in 0 W/m2
04:00 36.5 °F 35.2 °F 29.94 in SE 1 mph 5 mph 95% 0.00 in 0 W/m2
04:10 36.5 °F 35.2 °F 29.94 in SW 2 mph 3 mph 95% 0.00 in 0 W/m2
04:20 36.3 °F 34.8 °F 29.94 in South 1 mph 3 mph 94% 0.00 in 0 W/m2
04:30 36.3 °F 35 °F 29.94 in SW 1 mph 4 mph 95% 0.00 in 0 W/m2
04:40 36.3 °F 35 °F 29.94 in SSW 1 mph 3 mph 95% 0.00 in 0 W/m2
04:50 36.3 °F 35 °F 29.94 in SSW 2 mph 4 mph 95% 0.00 in 0 W/m2
05:00 36.3 °F 34.8 °F 29.94 in SSW 3 mph 5 mph 94% 0.00 in 0 W/m2
05:10 36.1 °F 34.6 °F 29.94 in SSW 2 mph 5 mph 94% 0.00 in 0 W/m2
05:20 36.1 °F 34.6 °F 29.94 in SSW 2 mph 4 mph 94% 0.00 in 0 W/m2
05:30 36.1 °F 34.6 °F 29.94 in SW 2 mph 3 mph 94% 0.00 in 0 W/m2
05:40 36.1 °F 34.6 °F 29.94 in Calm   3 mph 94% 0.00 in 0 W/m2
05:50 36.1 °F 34.6 °F 29.94 in SW 2 mph 3 mph 94% 0.00 in 0 W/m2
06:00 36 °F 34.4 °F 29.94 in WSW 1 mph 3 mph 94% 0.00 in 0 W/m2
06:10 36 °F 34.4 °F 29.94 in Calm   2 mph 94% 0.00 in 0 W/m2
06:20 36 °F 34.4 °F 29.95 in NNW 1 mph 2 mph 94% 0.00 in 0 W/m2
06:30 36 °F 34.7 °F 29.94 in WSW 2 mph 3 mph 95% 0.00 in 0 W/m2
06:40 36 °F 34.7 °F 29.94 in NW 1 mph 3 mph 95% 0.00 in 0 W/m2
06:50 35.8 °F 34.2 °F 29.94 in West 2 mph 4 mph 94% 0.00 in 1 W/m2
07:00 35.8 °F 34.2 °F 29.94 in WSW 1 mph 3 mph 94% 0.00 in 4 W/m2
07:10 35.8 °F 34.2 °F 29.94 in WSW 1 mph 4 mph 94% 0.00 in 8 W/m2
07:20 35.6 °F 34 °F 29.93 in SE 1 mph 5 mph 94% 0.00 in 13 W/m2
07:30 35.8 °F 34.2 °F 29.93 in SE 1 mph 5 mph 94% 0.00 in 20 W/m2
07:40 35.8 °F 34.2 °F 29.93 in SE 2 mph 4 mph 94% 0.00 in 33 W/m2
07:50 35.8 °F 34.2 °F 29.94 in South 1 mph 5 mph 94% 0.00 in 49 W/m2
08:00 36 °F 34.7 °F 29.94 in WSW 2 mph 5 mph 95% 0.00 in 69 W/m2
08:10 36.1 °F 34.6 °F 29.94 in West 3 mph 6 mph 94% 0.00 in 119 W/m2
08:20 36.5 °F 34.9 °F 29.94 in WSW 5 mph 6 mph 94% 0.00 in 121 W/m2
08:30 36.7 °F 34.8 °F 29.95 in SW 3 mph 7 mph 93% 0.00 in 117 W/m2
08:40 36.9 °F 35 °F 29.95 in SW 6 mph 9 mph 93% 0.00 in 83 W/m2
08:50 36.9 °F 34.5 °F 29.95 in SW 5 mph 13 mph 91% 0.00 in 176 W/m2
09:00 37 °F 34.4 °F 29.95 in SSW 3 mph 9 mph 90% 0.00 in 151 W/m2
09:10 37.8 °F 35.1 °F 29.94 in South 5 mph 7 mph 90% 0.00 in 235 W/m2
09:20 38.7 °F 36 °F 29.94 in SSE 7 mph 9 mph 90% 0.00 in 197 W/m2
09:30 38.7 °F 35.4 °F 29.94 in SE 5 mph 7 mph 88% 0.00 in 188 W/m2
09:40 38.7 °F 35.7 °F 29.94 in SE 2 mph 6 mph 89% 0.00 in 238 W/m2
09:50 38.8 °F 35.6 °F 29.94 in SE 2 mph 5 mph 88% 0.00 in 129 W/m2
10:00 38.5 °F 35.2 °F 29.94 in East 2 mph 5 mph 88% 0.00 in 80 W/m2
10:10 38.7 °F 35.4 °F 29.94 in South 1 mph 3 mph 88% 0.00 in 248 W/m2
10:20 39.4 °F 36.1 °F 29.93 in SW 3 mph 6 mph 88% 0.00 in 323 W/m2
10:30 40.6 °F 36.8 °F 29.92 in SW 1 mph 7 mph 86% 0.00 in 330 W/m2
10:40 41.2 °F 37 °F 29.92 in West 1 mph 5 mph 85% 0.00 in 337 W/m2
10:50 41.7 °F 37.2 °F 29.93 in South 2 mph 5 mph 84% 0.00 in 239 W/m2
11:00 41.7 °F 36.9 °F 29.92 in SSW 2 mph 5 mph 83% 0.00 in 283 W/m2
11:10 41.7 °F 36.9 °F 29.92 in SSW 2 mph 5 mph 83% 0.00 in 347 W/m2
11:20 42.3 °F 37.5 °F 29.92 in SW 3 mph 6 mph 83% 0.00 in 229 W/m2
11:30 42.3 °F 36.8 °F 29.92 in WSW 3 mph 5 mph 81% 0.00 in 218 W/m2
11:40 42.1 °F 36.7 °F 29.92 in SW 3 mph 6 mph 81% 0.00 in 238 W/m2
11:50 42.1 °F 37.3 °F 29.91 in SW 3 mph 8 mph 83% 0.00 in 286 W/m2
12:00 42.3 °F 37.5 °F 29.91 in SSW 2 mph 6 mph 83% 0.00 in 211 W/m2
12:10 42.3 °F 37.5 °F 29.91 in WSW 2 mph 4 mph 83% 0.00 in 163 W/m2
12:20 42.3 °F 37.5 °F 29.91 in SE 5 mph 9 mph 83% 0.00 in 160 W/m2
12:30 42.1 °F 37.3 °F 29.91 in SE 6 mph 9 mph 83% 0.00 in 189 W/m2
12:40 42.1 °F 37.3 °F 29.91 in SE 5 mph 8 mph 83% 0.00 in 170 W/m2
12:50 41.9 °F 37.1 °F 29.90 in SE 5 mph 8 mph 83% 0.00 in 133 W/m2
13:00 41.5 °F 36.1 °F 29.91 in SE 2 mph 9 mph 81% 0.00 in 153 W/m2
13:10 41.5 °F 37.1 °F 29.90 in SE 5 mph 8 mph 84% 0.00 in 161 W/m2
13:20 41.4 °F 36.6 °F 29.90 in SE 3 mph 7 mph 83% 0.00 in 130 W/m2
13:30 41.3 °F 36.9 °F 29.90 in ESE 2 mph 8 mph 84% 0.00 in 113 W/m2
13:40 41.2 °F 36.7 °F 29.90 in SE 3 mph 8 mph 84% 0.00 in 128 W/m2
13:50 41.2 °F 36.7 °F 29.89 in SE 3 mph 8 mph 84% 0.00 in 113 W/m2
14:00 41.2 °F 36.7 °F 29.89 in SSE 3 mph 8 mph 84% 0.00 in 110 W/m2
14:10 41.2 °F 36.7 °F 29.89 in SSW 3 mph 7 mph 84% 0.00 in 88 W/m2
14:20 41.2 °F 36.7 °F 29.89 in South 2 mph 8 mph 84% 0.00 in 83 W/m2
14:30 41.1 °F 37 °F 29.89 in SSW 2 mph 7 mph 85% 0.00 in 71 W/m2
14:40 41 °F 36.8 °F 29.89 in SW 2 mph 5 mph 85% 0.00 in 52 W/m2
14:50 41 °F 36.8 °F 29.89 in WSW 1 mph 4 mph 85% 0.00 in 38 W/m2
15:00 41 °F 36.8 °F 29.89 in SE 2 mph 5 mph 85% 0.00 in 45 W/m2
15:10 41 °F 36.8 °F 29.88 in Calm   3 mph 85% 0.00 in 44 W/m2
15:20 41 °F 36.8 °F 29.88 in SE 2 mph 5 mph 85% 0.00 in 28 W/m2
15:30 41 °F 36.8 °F 29.88 in SE 2 mph 6 mph 85% 0.00 in 13 W/m2
15:40 41 °F 37.1 °F 29.88 in Calm   3 mph 86% 0.00 in 18 W/m2
15:50 41 °F 37.1 °F 29.88 in Calm   3 mph 86% 0.00 in 8 W/m2
16:00 40.8 °F 37 °F 29.87 in Calm   3 mph 86% 0.00 in 0 W/m2
16:10 40.6 °F 37.4 °F 29.88 in WSW 1 mph 3 mph 88% 0.00 in 0 W/m2
16:20 40.4 °F 37.2 °F 29.88 in NW 1 mph 3 mph 88% 0.00 in 0 W/m2
16:30 40.1 °F 36.8 °F 29.88 in NW 1 mph 3 mph 88% 0.00 in 0 W/m2
16:40 39.9 °F 36.7 °F 29.88 in NNW 2 mph 5 mph 88% 0.00 in 0 W/m2
16:50 39.7 °F 36.8 °F 29.88 in NW 1 mph 5 mph 89% 0.00 in 0 W/m2
17:00 39.5 °F 36.5 °F 29.88 in NW 2 mph 4 mph 89% 0.00 in 0 W/m2
17:10 39.2 °F 36.2 °F 29.88 in West 2 mph 5 mph 89% 0.00 in 0 W/m2
17:20 38.8 °F 35.9 °F 29.88 in West 1 mph 5 mph 89% 0.00 in 0 W/m2
17:30 38.5 °F 35.5 °F 29.88 in Calm   3 mph 89% 0.00 in 0 W/m2
17:40 38.1 °F 35.2 °F 29.88 in Calm   2 mph 89% 0.00 in 0 W/m2
17:50 37.7 °F 35 °F 29.88 in North 2 mph 4 mph 90% 0.00 in 0 W/m2
18:00 37.4 °F 34.7 °F 29.88 in Calm   4 mph 90% 0.00 in 0 W/m2
18:10 37.2 °F 34.5 °F 29.88 in NNW 1 mph 2 mph 90% 0.00 in 0 W/m2
18:20 36.8 °F 34.4 °F 29.88 in North 1 mph 2 mph 91% 0.00 in 0 W/m2
18:30 36.5 °F 34.1 °F 29.88 in NW 1 mph 2 mph 91% 0.00 in 0 W/m2
18:40 36.1 °F 33.8 °F 29.88 in Calm   2 mph 91% 0.00 in 0 W/m2
18:50 35.8 °F 33.4 °F 29.88 in West 2 mph 2 mph 91% 0.00 in 0 W/m2
19:00 35.4 °F 33.6 °F 29.88 in NW 1 mph 4 mph 93% 0.00 in 0 W/m2
19:10 35.2 °F 33.4 °F 29.88 in Calm   2 mph 93% 0.00 in 0 W/m2
19:20 35.1 °F 33.5 °F 29.88 in NW 1 mph 2 mph 94% 0.00 in 0 W/m2
19:30 35.1 °F 33.5 °F 29.88 in West 2 mph 3 mph 94% 0.00 in 0 W/m2
19:40 34.9 °F 33.6 °F 29.88 in WNW 1 mph 3 mph 95% 0.00 in 0 W/m2
19:50 35.1 °F 33.8 °F 29.88 in Calm   2 mph 95% 0.00 in 0 W/m2
20:00 35.1 °F 33.8 °F 29.88 in Calm   2 mph 95% 0.00 in 0 W/m2
20:10 35.1 °F 33.8 °F 29.88 in WNW 1 mph 1 mph 95% 0.00 in 0 W/m2
20:20 35.1 °F 33.8 °F 29.88 in WNW 1 mph 2 mph 95% 0.00 in 0 W/m2
20:30 35.1 °F 33.8 °F 29.88 in Calm   2 mph 95% 0.00 in 0 W/m2
20:40 34.9 °F 33.6 °F 29.88 in WNW 2 mph 3 mph 95% 0.00 in 0 W/m2
20:50 34.9 °F 33.6 °F 29.88 in Calm   2 mph 95% 0.00 in 0 W/m2
21:00 34.9 °F 33.6 °F 29.88 in Calm   2 mph 95% 0.00 in 0 W/m2
21:10 34.9 °F 33.6 °F 29.88 in NNW 1 mph 2 mph 95% 0.00 in 0 W/m2
21:20 35 °F 34 °F 29.88 in Calm   2 mph 96% 0.00 in 0 W/m2
21:30 35.1 °F 34 °F 29.88 in Calm   1 mph 96% 0.00 in 0 W/m2
21:40 35 °F 34 °F 29.88 in Calm   1 mph 96% 0.00 in 0 W/m2
21:50 34.9 °F 33.9 °F 29.88 in Calm   1 mph 96% 0.00 in 0 W/m2
22:00 35.1 °F 34 °F 29.88 in Calm   1 mph 96% 0.00 in 0 W/m2
22:10 34.9 °F 33.9 °F 29.88 in Calm     96% 0.00 in 0 W/m2
22:20 34.9 °F 33.9 °F 29.88 in Calm   2 mph 96% 0.00 in 0 W/m2
22:30 34.9 °F 33.9 °F 29.88 in Calm   1 mph 96% 0.00 in 0 W/m2
22:40 34.9 °F 33.9 °F 29.88 in Calm   2 mph 96% 0.00 in 0 W/m2
22:50 34.9 °F 33.9 °F 29.88 in Calm   1 mph 96% 0.00 in 0 W/m2
23:00 34.9 °F 33.9 °F 29.88 in Calm   2 mph 96% 0.00 in 0 W/m2
23:10 35.1 °F 34.6 °F 29.88 in WNW 1 mph 3 mph 98% 0.00 in 0 W/m2
23:20 35.1 °F 34.6 °F 29.88 in WNW 1 mph 3 mph 98% 0.00 in 0 W/m2
23:30 35.1 °F 34.6 °F 29.88 in West 1 mph 2 mph 98% 0.00 in 0 W/m2
23:40 34.9 °F 33.9 °F 29.88 in Calm   2 mph 96% 0.00 in 0 W/m2
23:50 34.9 °F 34.4 °F 29.88 in Calm   2 mph 98% 0.00 in 0 W/m2
Knjazevac, Serbia
Compliments of Weather Underground - 2 mb